createdAt,value
2018-04-08T00:00:39.144Z,58.10
2018-04-08T00:03:06.635Z,58.10
2018-04-08T00:05:34.155Z,58.20
2018-04-08T00:08:01.652Z,58.20
2018-04-08T00:10:29.912Z,58.30
2018-04-08T00:12:57.464Z,58.30
2018-04-08T00:15:24.972Z,58.30
2018-04-08T00:17:52.472Z,58.40
2018-04-08T00:20:20.097Z,58.60
2018-04-08T00:22:47.599Z,58.70
2018-04-08T00:25:15.097Z,59.20
2018-04-08T00:27:42.640Z,58.70
2018-04-08T00:30:10.145Z,58.80
2018-04-08T00:32:37.640Z,58.80
2018-04-08T00:35:05.192Z,58.90
2018-04-08T00:37:32.684Z,59.00
2018-04-08T00:40:00.945Z,59.20
2018-04-08T00:42:29.450Z,59.20
2018-04-08T00:44:57.728Z,59.20
2018-04-08T00:47:25.228Z,59.20
2018-04-08T00:49:52.764Z,59.40
2018-04-08T00:52:20.268Z,59.40
2018-04-08T00:54:47.765Z,59.50
2018-04-08T00:57:15.315Z,59.50
2018-04-08T00:59:42.828Z,59.50
2018-04-08T01:02:10.324Z,59.70
2018-04-08T01:04:37.916Z,60.00
2018-04-08T01:07:05.420Z,59.70
2018-04-08T01:09:32.928Z,59.70
2018-04-08T01:12:00.498Z,59.80
2018-04-08T01:14:28.764Z,59.90
2018-04-08T01:16:56.272Z,59.80
2018-04-08T01:19:23.816Z,60.00
2018-04-08T01:21:51.316Z,60.00
2018-04-08T01:24:18.819Z,59.90
2018-04-08T01:26:46.360Z,59.70
2018-04-08T01:29:13.857Z,59.80
2018-04-08T01:31:41.366Z,59.80
2018-04-08T01:34:08.941Z,59.80
2018-04-08T01:36:36.506Z,59.80
2018-04-08T01:39:04.008Z,59.80
2018-04-08T01:41:31.552Z,59.90
2018-04-08T01:43:59.060Z,60.00
2018-04-08T01:46:26.568Z,60.10
2018-04-08T01:48:54.112Z,60.30
2018-04-08T01:51:21.613Z,60.40
2018-04-08T01:53:49.113Z,60.70
2018-04-08T01:56:17.442Z,60.80
2018-04-08T01:58:44.949Z,61.00
2018-04-08T02:01:12.441Z,61.10
2018-04-08T02:03:40.808Z,61.50
2018-04-08T02:06:09.075Z,61.70
2018-04-08T02:08:36.585Z,61.60
2018-04-08T02:11:04.116Z,61.60
2018-04-08T02:13:32.368Z,62.00
2018-04-08T02:15:59.864Z,62.00
2018-04-08T02:18:27.397Z,62.40
2018-04-08T02:20:55.133Z,62.50
2018-04-08T02:23:22.640Z,62.80
2018-04-08T02:25:50.969Z,63.10
2018-04-08T02:28:18.471Z,63.10
2018-04-08T02:30:46.757Z,63.30
2018-04-08T02:33:14.308Z,63.20
2018-04-08T02:35:41.800Z,63.40
2018-04-08T02:38:09.313Z,63.60
2018-04-08T02:40:36.861Z,63.30
2018-04-08T02:43:04.357Z,63.30
2018-04-08T02:45:31.854Z,63.30
2018-04-08T02:47:59.392Z,63.20
2018-04-08T02:50:26.884Z,63.30
2018-04-08T02:52:54.385Z,63.10
2018-04-08T02:55:21.952Z,63.30
2018-04-08T02:57:49.452Z,63.40
2018-04-08T03:00:16.953Z,63.50
2018-04-08T03:02:44.506Z,63.50
2018-04-08T03:05:12.004Z,63.60
2018-04-08T03:07:39.501Z,63.60
2018-04-08T03:10:07.031Z,63.80
2018-04-08T03:12:34.532Z,63.80
2018-04-08T03:15:02.039Z,64.00
2018-04-08T03:17:30.353Z,64.10
2018-04-08T03:19:57.852Z,64.10
2018-04-08T03:22:25.347Z,64.00
2018-04-08T03:24:53.690Z,64.10
2018-04-08T03:27:21.192Z,64.10
2018-04-08T03:29:49.452Z,64.40
2018-04-08T03:32:16.972Z,64.50
2018-04-08T03:34:44.496Z,64.60
2018-04-08T03:37:11.992Z,65.00
2018-04-08T03:39:39.531Z,64.90
2018-04-08T03:42:07.033Z,64.90
2018-04-08T03:44:34.540Z,65.10
2018-04-08T03:47:02.156Z,65.10
2018-04-08T03:49:29.621Z,65.30
2018-04-08T03:51:57.847Z,65.60
2018-04-08T03:54:25.387Z,65.80
2018-04-08T03:56:53.652Z,66.10
2018-04-08T03:59:21.153Z,66.10
2018-04-08T04:01:48.716Z,66.20
2018-04-08T04:04:16.213Z,66.30
2018-04-08T04:06:43.717Z,66.30
2018-04-08T04:09:11.231Z,66.40
2018-04-08T04:11:38.740Z,66.50
2018-04-08T04:14:06.239Z,66.80
2018-04-08T04:16:33.808Z,66.80
2018-04-08T04:19:13.020Z,67.00
2018-04-08T04:21:52.336Z,67.10
2018-04-08T04:24:31.552Z,67.20
2018-04-08T04:26:59.836Z,67.50
2018-04-08T04:29:28.107Z,67.50
2018-04-08T04:31:55.600Z,67.40
2018-04-08T04:34:23.121Z,67.80
2018-04-08T04:36:51.540Z,67.90
2018-04-08T04:39:19.040Z,67.90
2018-04-08T04:41:46.766Z,68.00
2018-04-08T04:44:14.264Z,68.10
2018-04-08T04:46:41.764Z,68.20
2018-04-08T04:49:10.362Z,68.60
2018-04-08T04:51:37.861Z,68.50
2018-04-08T04:54:05.353Z,68.30
2018-04-08T04:56:33.666Z,68.20
2018-04-08T04:59:01.176Z,68.20
2018-04-08T05:01:28.675Z,68.10
2018-04-08T05:03:56.203Z,68.10
2018-04-08T05:06:23.696Z,68.30
2018-04-08T05:08:51.183Z,68.20
2018-04-08T05:11:18.764Z,68.30
2018-04-08T05:13:46.292Z,68.90
2018-04-08T05:16:13.904Z,68.10
2018-04-08T05:18:41.447Z,68.00
2018-04-08T05:21:08.942Z,67.90
2018-04-08T05:23:36.444Z,67.90
2018-04-08T05:26:03.955Z,67.80
2018-04-08T05:28:31.452Z,67.70
2018-04-08T05:30:58.959Z,67.60
2018-04-08T05:33:26.521Z,68.00
2018-04-08T05:35:54.746Z,67.30
2018-04-08T05:38:22.249Z,67.30
2018-04-08T05:40:49.797Z,67.20
2018-04-08T05:43:17.304Z,67.10
2018-04-08T05:45:45.575Z,67.00
2018-04-08T05:48:13.880Z,67.00
2018-04-08T05:50:41.387Z,67.00
2018-04-08T05:53:08.886Z,67.00
2018-04-08T05:55:37.186Z,66.80
2018-04-08T05:58:04.725Z,66.70
2018-04-08T06:00:32.241Z,66.60
2018-04-08T06:02:59.777Z,66.40
2018-04-08T06:05:27.277Z,66.40
2018-04-08T06:07:56.974Z,66.20
2018-04-08T06:10:24.502Z,66.20
2018-04-08T06:12:51.995Z,66.00
2018-04-08T06:15:19.503Z,65.90
2018-04-08T06:17:47.104Z,65.80
2018-04-08T06:20:14.788Z,65.90
2018-04-08T06:22:42.292Z,65.80
2018-04-08T06:25:09.847Z,65.60
2018-04-08T06:27:37.361Z,65.30
2018-04-08T06:30:04.933Z,65.30
2018-04-08T06:32:32.466Z,65.10
2018-04-08T06:34:59.973Z,65.00
2018-04-08T06:37:28.267Z,65.70
2018-04-08T06:39:55.788Z,64.80
2018-04-08T06:42:23.306Z,64.60
2018-04-08T06:44:50.821Z,64.50
2018-04-08T06:47:18.410Z,64.20
2018-04-08T06:49:45.911Z,63.80
2018-04-08T06:52:14.180Z,62.60
2018-04-08T06:54:41.718Z,62.60
2018-04-08T06:57:09.233Z,62.40
2018-04-08T06:59:36.736Z,62.30
2018-04-08T07:02:04.291Z,62.20
2018-04-08T07:04:31.792Z,62.00
2018-04-08T07:06:59.296Z,61.70
2018-04-08T07:09:26.864Z,61.50
2018-04-08T07:11:55.132Z,61.30
2018-04-08T07:14:22.624Z,62.00
2018-04-08T07:16:50.173Z,61.00
2018-04-08T07:19:18.456Z,60.90
2018-04-08T07:21:46.747Z,60.80
2018-04-08T07:24:14.276Z,60.80
2018-04-08T07:26:42.542Z,60.60
2018-04-08T07:29:10.051Z,60.60
2018-04-08T07:31:37.623Z,60.20
2018-04-08T07:34:05.885Z,59.90
2018-04-08T07:36:33.392Z,59.80
2018-04-08T07:39:00.932Z,59.60
2018-04-08T07:41:28.431Z,59.60
2018-04-08T07:43:56.697Z,60.00
2018-04-08T07:46:24.228Z,59.40
2018-04-08T07:48:51.760Z,59.30
2018-04-08T07:51:19.264Z,59.20
2018-04-08T07:53:46.856Z,59.10
2018-04-08T07:56:14.361Z,59.20
2018-04-08T07:58:41.858Z,58.90
2018-04-08T08:01:09.400Z,59.10
2018-04-08T08:03:36.897Z,59.10
2018-04-08T08:06:05.188Z,58.80
2018-04-08T08:08:33.491Z,58.80
2018-04-08T08:11:01.001Z,58.80
2018-04-08T08:13:28.499Z,58.70
2018-04-08T08:15:56.050Z,58.50
2018-04-08T08:18:23.548Z,58.30
2018-04-08T08:20:51.060Z,58.10
2018-04-08T08:23:18.584Z,57.90
2018-04-08T08:25:46.089Z,57.70
2018-04-08T08:28:14.352Z,57.40
2018-04-08T08:30:41.884Z,57.40
2018-04-08T08:33:09.388Z,57.60
2018-04-08T08:35:37.653Z,56.50
2018-04-08T08:38:05.966Z,56.30
2018-04-08T08:40:33.460Z,56.30
2018-04-08T08:43:00.956Z,56.10
2018-04-08T08:45:28.488Z,55.80
2018-04-08T08:47:55.989Z,55.70
2018-04-08T08:50:23.523Z,55.40
2018-04-08T08:52:51.111Z,55.50
2018-04-08T08:55:18.604Z,55.60
2018-04-08T08:57:46.116Z,55.10
2018-04-08T09:00:14.410Z,54.80
2018-04-08T09:02:41.912Z,54.70
2018-04-08T09:05:09.413Z,54.30
2018-04-08T09:07:37.721Z,54.30
2018-04-08T09:10:05.220Z,54.30
2018-04-08T09:12:32.812Z,53.80
2018-04-08T09:15:00.361Z,53.80
2018-04-08T09:17:27.871Z,53.90
2018-04-08T09:20:04.554Z,53.90
2018-04-08T09:25:36.684Z,52.80
2018-04-08T09:28:04.192Z,52.70
2018-04-08T09:30:31.719Z,52.80
2018-04-08T09:33:00.060Z,53.20
2018-04-08T09:35:27.556Z,53.10
2018-04-08T09:37:55.060Z,53.10
2018-04-08T09:40:22.620Z,53.10
2018-04-08T09:42:50.124Z,53.20
2018-04-08T09:45:17.640Z,53.60
2018-04-08T09:47:45.171Z,53.10
2018-04-08T09:50:12.718Z,53.10
2018-04-08T09:52:40.219Z,53.30
2018-04-08T09:55:07.824Z,53.10
2018-04-08T09:57:40.315Z,52.90
2018-04-08T10:00:07.808Z,52.90
2018-04-08T10:02:37.992Z,52.90
2018-04-08T10:05:05.492Z,52.90
2018-04-08T10:07:32.994Z,52.80
2018-04-08T10:10:00.520Z,52.90
2018-04-08T10:12:28.024Z,53.00
2018-04-08T10:14:55.519Z,52.90
2018-04-08T10:17:23.811Z,52.80
2018-04-08T10:19:51.429Z,52.80
2018-04-08T10:22:18.932Z,52.80
2018-04-08T10:24:46.510Z,52.30
2018-04-08T10:27:14.016Z,52.00
2018-04-08T10:29:41.517Z,51.90
2018-04-08T10:32:09.060Z,51.70
2018-04-08T10:34:37.397Z,51.60
2018-04-08T10:37:04.901Z,51.30
2018-04-08T10:39:33.189Z,50.80
2018-04-08T10:42:00.686Z,50.70
2018-04-08T10:44:28.188Z,50.90
2018-04-08T10:46:55.723Z,50.80
2018-04-08T10:49:23.225Z,51.00
2018-04-08T10:51:51.530Z,51.30
2018-04-08T10:54:19.088Z,51.30
2018-04-08T10:56:46.600Z,50.90
2018-04-08T10:59:14.103Z,50.80
2018-04-08T11:01:41.669Z,50.20
2018-04-08T11:04:09.164Z,49.90
2018-04-08T11:06:36.664Z,50.00
2018-04-08T11:09:04.967Z,50.50
2018-04-08T11:11:32.544Z,50.40
2018-04-08T11:14:00.069Z,50.20
2018-04-08T11:16:28.372Z,50.00
2018-04-08T11:18:55.876Z,50.40
2018-04-08T11:21:23.385Z,49.90
2018-04-08T11:23:50.937Z,49.40
2018-04-08T11:26:18.451Z,49.10
2018-04-08T11:28:45.953Z,48.70
2018-04-08T11:31:13.555Z,48.40
2018-04-08T11:33:41.060Z,48.80
2018-04-08T11:36:08.567Z,48.90
2018-04-08T11:38:36.095Z,49.30
2018-04-08T11:41:04.360Z,49.50
2018-04-08T11:43:31.851Z,49.40
2018-04-08T11:45:59.416Z,49.40
2018-04-08T11:48:26.916Z,49.40
2018-04-08T11:50:54.424Z,49.50
2018-04-08T11:53:21.960Z,49.50
2018-04-08T11:55:49.670Z,49.40
2018-04-08T11:58:17.176Z,49.30
2018-04-08T12:00:44.740Z,48.90
2018-04-08T12:03:12.239Z,48.90
2018-04-08T12:05:39.740Z,48.80
2018-04-08T12:08:07.313Z,48.80
2018-04-08T12:10:34.818Z,48.80
2018-04-08T12:13:02.332Z,48.70
2018-04-08T12:15:29.868Z,48.70
2018-04-08T12:17:57.364Z,48.80
2018-04-08T12:20:24.860Z,48.70
2018-04-08T12:22:52.408Z,48.80
2018-04-08T12:25:19.908Z,48.00
2018-04-08T12:27:47.428Z,48.10
2018-04-08T12:30:15.767Z,47.90
2018-04-08T12:32:43.493Z,47.80
2018-04-08T12:35:10.996Z,47.60
2018-04-08T12:37:38.552Z,47.70
2018-04-08T12:40:06.057Z,47.60
2018-04-08T12:42:33.584Z,47.50
2018-04-08T12:45:01.115Z,47.30
2018-04-08T12:47:28.620Z,47.30
2018-04-08T12:49:56.889Z,46.70
2018-04-08T12:52:24.420Z,46.70
2018-04-08T12:54:51.920Z,46.90
2018-04-08T12:57:20.238Z,46.90
2018-04-08T12:59:47.772Z,46.80
2018-04-08T13:02:16.038Z,47.60
2018-04-08T13:04:43.544Z,47.60
2018-04-08T13:07:11.113Z,47.80
2018-04-08T13:09:38.616Z,48.00
2018-04-08T13:12:06.127Z,47.80
2018-04-08T13:14:33.684Z,47.70
2018-04-08T13:17:01.178Z,47.80
2018-04-08T13:19:28.689Z,47.80
2018-04-08T13:21:56.272Z,47.70
2018-04-08T13:24:23.780Z,47.70
2018-04-08T13:26:51.275Z,47.00
2018-04-08T13:29:18.804Z,47.10
2018-04-08T13:31:47.084Z,47.60
2018-04-08T13:34:14.589Z,47.50
2018-04-08T13:36:42.145Z,47.50
2018-04-08T13:39:09.669Z,47.50
2018-04-08T13:41:37.198Z,47.00
2018-04-08T13:44:04.790Z,47.10
2018-04-08T13:46:33.061Z,47.60
2018-04-08T13:49:01.335Z,47.50
2018-04-08T13:51:29.636Z,47.90
2018-04-08T13:53:57.892Z,47.30
2018-04-08T13:56:25.393Z,47.20
2018-04-08T13:58:52.937Z,47.40
2018-04-08T14:01:20.450Z,47.60
2018-04-08T14:03:47.953Z,47.40
2018-04-08T14:06:15.476Z,47.50
2018-04-08T14:08:42.980Z,47.10
2018-04-08T14:11:10.559Z,47.00
2018-04-08T14:13:38.140Z,47.10
2018-04-08T14:16:05.644Z,47.00
2018-04-08T14:18:33.150Z,47.00
2018-04-08T14:21:00.708Z,47.10
2018-04-08T14:23:28.212Z,47.00
2018-04-08T14:25:55.721Z,47.10
2018-04-08T14:28:23.260Z,47.00
2018-04-08T14:30:50.761Z,47.00
2018-04-08T14:33:18.284Z,47.30
2018-04-08T14:35:45.974Z,47.30
2018-04-08T14:38:13.476Z,47.40
2018-04-08T14:40:40.973Z,47.50
2018-04-08T14:43:08.548Z,47.30
2018-04-08T14:45:36.048Z,47.50
2018-04-08T14:48:03.558Z,47.80
2018-04-08T14:50:31.095Z,47.90
2018-04-08T14:52:59.371Z,47.20
2018-04-08T14:55:27.638Z,47.40
2018-04-08T14:57:55.169Z,47.40
2018-04-08T15:00:22.672Z,47.60
2018-04-08T15:02:50.180Z,47.80
2018-04-08T15:05:17.725Z,47.60
2018-04-08T15:07:45.232Z,47.00
2018-04-08T15:10:12.872Z,47.40
2018-04-08T15:12:40.444Z,47.70
2018-04-08T15:15:07.958Z,47.90
2018-04-08T15:17:35.456Z,47.90
2018-04-08T15:20:03.037Z,47.70
2018-04-08T15:22:30.539Z,47.60
2018-04-08T15:24:58.031Z,47.80
2018-04-08T15:27:25.601Z,47.30
2018-04-08T15:29:53.095Z,47.10
2018-04-08T15:32:20.593Z,47.30
2018-04-08T15:34:48.179Z,46.90
2018-04-08T15:37:15.677Z,46.40
2018-04-08T15:39:43.170Z,46.60
2018-04-08T15:42:10.712Z,46.30
2018-04-08T15:44:38.220Z,46.40
2018-04-08T15:47:05.725Z,46.40
2018-04-08T15:49:34.046Z,46.60
2018-04-08T15:52:01.544Z,46.60
2018-04-08T15:54:29.040Z,46.90
2018-04-08T15:56:56.624Z,46.70
2018-04-08T15:59:24.124Z,47.10
2018-04-08T16:01:51.633Z,46.90
2018-04-08T16:04:19.180Z,47.20
2018-04-08T16:06:47.453Z,48.10
2018-04-08T16:09:15.744Z,48.30
2018-04-08T16:11:43.278Z,48.30
2018-04-08T16:14:11.050Z,48.70
2018-04-08T16:16:38.572Z,49.20
2018-04-08T16:19:06.152Z,49.40
2018-04-08T16:21:33.652Z,49.50
2018-04-08T16:24:01.148Z,49.70
2018-04-08T16:26:28.682Z,49.90
2018-04-08T16:28:56.188Z,49.90
2018-04-08T16:31:27.352Z,50.20
2018-04-08T16:33:58.055Z,50.10
2018-04-08T16:36:25.557Z,50.00
2018-04-08T16:38:53.062Z,50.20
2018-04-08T16:41:20.606Z,50.40
2018-04-08T16:43:48.107Z,50.40
2018-04-08T16:46:15.600Z,50.40
2018-04-08T16:48:43.894Z,50.30
2018-04-08T16:51:11.422Z,50.30
2018-04-08T16:53:38.926Z,50.50
2018-04-08T16:56:06.484Z,50.60
2018-04-08T16:58:33.985Z,50.70
2018-04-08T17:01:01.487Z,50.80
2018-04-08T17:03:29.830Z,51.40
2018-04-08T17:05:57.336Z,51.40
2018-04-08T17:08:24.841Z,51.10
2018-04-08T17:10:52.403Z,51.20
2018-04-08T17:13:19.914Z,51.40
2018-04-08T17:15:47.408Z,51.80
2018-04-08T17:18:14.948Z,52.20
2018-04-08T17:20:42.460Z,52.70
2018-04-08T17:23:09.990Z,52.50
2018-04-08T17:25:37.534Z,52.90
2018-04-08T17:28:05.032Z,53.10
2018-04-08T17:30:32.537Z,53.50
2018-04-08T17:33:00.104Z,53.80
2018-04-08T17:35:27.652Z,53.90
2018-04-08T17:37:55.920Z,54.50
2018-04-08T17:40:23.465Z,54.00
2018-04-08T17:42:50.978Z,54.00
2018-04-08T17:45:18.484Z,54.20
2018-04-08T17:47:46.089Z,54.70
2018-04-08T17:50:13.584Z,55.00
2018-04-08T17:52:41.080Z,55.70
2018-04-08T17:55:08.647Z,55.90
2018-04-08T17:57:36.920Z,56.30
2018-04-08T18:00:04.432Z,56.30
2018-04-08T18:02:32.110Z,56.70
2018-04-08T18:04:59.608Z,57.10
2018-04-08T18:07:27.873Z,57.70
2018-04-08T18:09:55.428Z,57.70
2018-04-08T18:12:22.939Z,57.90
2018-04-08T18:14:50.476Z,57.90
2018-04-08T18:17:18.828Z,58.20
2018-04-08T18:19:46.328Z,58.20
2018-04-08T18:22:13.824Z,58.10
2018-04-08T18:24:41.348Z,58.40
2018-04-08T18:27:08.844Z,58.50
2018-04-08T18:29:36.348Z,58.40
2018-04-08T18:32:03.900Z,58.50
2018-04-08T18:34:31.401Z,58.60
2018-04-08T18:36:58.912Z,58.70
2018-04-08T18:39:26.489Z,58.80
2018-04-08T18:41:53.986Z,58.90
2018-04-08T18:44:21.488Z,59.40
2018-04-08T18:46:49.840Z,59.50
2018-04-08T18:49:17.341Z,59.50
2018-04-08T18:51:44.851Z,59.60
2018-04-08T18:54:12.392Z,59.80
2018-04-08T18:56:39.904Z,59.80
2018-04-08T18:59:07.410Z,60.10
2018-04-08T19:01:34.998Z,59.90
2018-04-08T19:04:02.500Z,59.90
2018-04-08T19:06:30.006Z,59.90
2018-04-08T19:08:57.566Z,59.90
2018-04-08T19:11:25.082Z,60.10
2018-04-08T19:13:53.211Z,59.90
2018-04-08T19:16:20.801Z,59.80
2018-04-08T19:18:48.474Z,59.80
2018-04-08T19:21:15.984Z,59.80
2018-04-08T19:23:43.560Z,59.80
2018-04-08T19:26:11.064Z,59.80
2018-04-08T19:28:38.574Z,60.10
2018-04-08T19:31:06.124Z,60.00
2018-04-08T19:33:33.652Z,60.10
2018-04-08T19:36:01.153Z,60.30
2018-04-08T19:38:28.704Z,60.50
2018-04-08T19:40:56.241Z,60.40
2018-04-08T19:43:23.761Z,60.70
2018-04-08T19:45:51.348Z,60.80
2018-04-08T19:48:19.631Z,60.90
2018-04-08T19:50:47.127Z,60.80
2018-04-08T19:53:14.680Z,60.90
2018-04-08T19:55:42.952Z,61.00
2018-04-08T19:58:10.456Z,61.00
2018-04-08T20:00:38.764Z,61.30
2018-04-08T20:03:06.271Z,61.10
2018-04-08T20:05:33.812Z,61.10
2018-04-08T20:08:02.116Z,61.30
2018-04-08T20:10:29.617Z,61.30
2018-04-08T20:12:57.113Z,61.30
2018-04-08T20:15:25.494Z,61.30
2018-04-08T20:17:53.756Z,61.10
2018-04-08T20:20:21.257Z,61.10
2018-04-08T20:22:48.845Z,61.00
2018-04-08T20:25:16.341Z,61.00
2018-04-08T20:27:43.840Z,61.00
2018-04-08T20:30:11.405Z,61.20
2018-04-08T20:32:38.906Z,61.10
2018-04-08T20:35:06.404Z,61.20
2018-04-08T20:37:34.740Z,61.30
2018-04-08T20:40:02.240Z,61.20
2018-04-08T20:42:30.509Z,61.50
2018-04-08T20:44:58.056Z,61.50
2018-04-08T20:47:25.556Z,61.50
2018-04-08T20:49:53.062Z,61.50
2018-04-08T20:52:20.644Z,61.50
2018-04-08T20:54:48.153Z,61.50
2018-04-08T20:57:15.660Z,61.60
2018-04-08T20:59:43.180Z,61.80
2018-04-08T21:02:10.680Z,61.70
2018-04-08T21:04:38.184Z,61.60
2018-04-08T21:07:05.756Z,61.30
2018-04-08T21:09:33.261Z,61.30
2018-04-08T21:12:00.756Z,61.10
2018-04-08T21:14:28.304Z,61.10
2018-04-08T21:16:55.802Z,61.20
2018-04-08T21:19:29.121Z,61.30
2018-04-08T21:21:56.620Z,61.10
2018-04-08T21:24:24.123Z,61.10
2018-04-08T21:26:51.692Z,61.00
2018-04-08T21:29:19.188Z,60.90
2018-04-08T21:31:46.698Z,61.00
2018-04-08T21:34:14.252Z,61.10
2018-04-08T21:36:41.769Z,61.30
2018-04-08T21:39:10.044Z,61.30
2018-04-08T21:41:37.583Z,61.80
2018-04-08T21:44:05.084Z,61.80
2018-04-08T21:46:33.348Z,62.20
2018-04-08T21:49:00.917Z,62.20
2018-04-08T21:51:29.236Z,62.40
2018-04-08T21:53:56.709Z,62.40
2018-04-08T21:56:24.243Z,62.50
2018-04-08T21:58:51.744Z,62.60
2018-04-08T22:01:19.248Z,62.60
2018-04-08T22:03:46.787Z,62.60
2018-04-08T22:06:15.053Z,63.30
2018-04-08T22:08:42.551Z,62.80
2018-04-08T22:11:10.119Z,63.00
2018-04-08T22:13:37.623Z,62.90
2018-04-08T22:16:05.120Z,63.20
2018-04-08T22:18:33.464Z,63.30
2018-04-08T22:21:00.955Z,63.20
2018-04-08T22:23:29.221Z,63.40
2018-04-08T22:25:56.810Z,63.30
2018-04-08T22:28:24.313Z,63.30
2018-04-08T22:30:51.807Z,63.40
2018-04-08T22:33:19.353Z,63.50
2018-04-08T22:35:46.969Z,63.60
2018-04-08T22:38:14.519Z,64.70
2018-04-08T22:40:42.035Z,64.80
2018-04-08T22:43:09.534Z,64.60
2018-04-08T22:45:37.035Z,64.80
2018-04-08T22:48:04.664Z,64.70
2018-04-08T22:50:32.121Z,64.90
2018-04-08T22:52:59.612Z,65.00
2018-04-08T22:55:27.712Z,65.10
2018-04-08T22:57:55.209Z,65.10
2018-04-08T23:00:25.416Z,65.20
2018-04-08T23:02:53.700Z,65.10
2018-04-08T23:05:21.200Z,65.00
2018-04-08T23:07:48.700Z,65.00
2018-04-08T23:10:16.299Z,65.10
2018-04-08T23:12:43.808Z,65.00
2018-04-08T23:15:11.300Z,65.00
2018-04-08T23:17:39.607Z,65.00
2018-04-08T23:20:07.105Z,65.00
2018-04-08T23:22:34.606Z,65.00
2018-04-08T23:25:02.133Z,64.90
2018-04-08T23:27:29.628Z,65.00
2018-04-08T23:29:57.127Z,63.60
2018-04-08T23:32:24.692Z,63.30
2018-04-08T23:34:52.195Z,63.10
2018-04-08T23:37:19.692Z,63.00
2018-04-08T23:39:47.228Z,62.80
2018-04-08T23:42:14.724Z,62.80
2018-04-08T23:44:42.232Z,62.70
2018-04-08T23:47:09.772Z,62.60
2018-04-08T23:49:37.270Z,62.60
2018-04-08T23:52:05.004Z,62.60
2018-04-08T23:54:32.580Z,62.50
2018-04-08T23:57:00.092Z,62.70
2018-04-08T23:59:28.363Z,63.20
